Time;durP1;ratioP1;P1;durP2;ratioP2;P2;SDS_P1;SDS_P2;PMS_P1;PMS_P2;Temp;Humidity;BMP_temperature;BMP_pressure;BME280_temperature;BME280_humidity;BME280_pressure;Samples;Min_cycle;Max_cycle;Signal;HPM_P1;HPM_P2
2022/02/06 00:00:10;;;;;;;6.37;3.00;;;;;;;4.85;54.83;100147.41;4934490;28;101788;-86
2022/02/06 00:02:40;;;;;;;6.37;3.20;;;;;;;5.01;54.59;100177.56;4916436;28;97310;-86
2022/02/06 00:05:06;;;;;;;9.83;3.77;;;;;;;4.95;54.99;100168.09;4936158;28;96739;-87
2022/02/06 00:07:32;;;;;;;8.60;3.47;;;;;;;4.92;54.80;100160.31;4918791;28;97226;-87
2022/02/06 00:09:57;;;;;;;7.97;3.47;;;;;;;5.07;54.71;100163.59;4920841;28;98552;-86
2022/02/06 00:12:23;;;;;;;8.43;3.53;;;;;;;5.01;54.91;100155.88;4937582;28;100235;-86
2022/02/06 00:14:49;;;;;;;10.20;3.87;;;;;;;4.73;55.17;100128.47;4936758;28;96872;-86
2022/02/06 00:17:15;;;;;;;12.50;4.30;;;;;;;4.89;56.04;100146.50;4935274;28;97056;-87
2022/02/06 00:19:43;;;;;;;12.40;4.30;;;;;;;4.82;56.01;100152.66;4918253;28;97342;-87
2022/02/06 00:22:24;;;;;;;8.00;3.50;;;;;;;4.72;56.78;100149.31;4934126;28;100890;-88
2022/02/06 00:25:07;;;;;;;9.40;3.17;;;;;;;4.76;56.76;100156.19;4918397;28;97246;-87
2022/02/06 00:30:14;;;;;;;9.13;4.00;;;;;;;4.72;57.21;100141.53;4957988;28;98047;-87
2022/02/06 00:32:46;;;;;;;11.80;4.90;;;;;;;4.68;57.13;100143.31;4918148;28;101218;-87
2022/02/06 00:35:33;;;;;;;7.30;3.35;;;;;;;4.65;56.84;100132.91;4930276;28;97110;-87
2022/02/06 00:43:14;;;;;;;10.30;3.27;;;;;;;4.55;57.59;100123.53;4950515;28;97221;-86
2022/02/06 00:45:39;;;;;;;10.57;3.23;;;;;;;4.65;57.74;100119.91;4933493;28;96912;-87
2022/02/06 00:48:05;;;;;;;7.57;3.10;;;;;;;4.60;57.57;100115.69;4934221;28;97221;-87
2022/02/06 00:50:32;;;;;;;9.47;3.37;;;;;;;4.58;57.52;100100.09;4937299;28;101653;-86
2022/02/06 00:53:02;;;;;;;6.87;2.87;;;;;;;4.63;57.69;100108.69;4920242;28;101969;-87
2022/02/06 00:55:28;;;;;;;6.27;3.10;;;;;;;4.65;57.58;100098.25;4937128;28;96804;-88
2022/02/06 00:57:53;;;;;;;6.43;3.40;;;;;;;4.65;57.46;100098.25;4920896;28;97262;-86
2022/02/06 01:00:19;;;;;;;10.00;3.47;;;;;;;4.67;57.70;100099.97;4937271;28;97882;-87
2022/02/06 01:02:44;;;;;;;11.57;3.47;;;;;;;4.67;57.52;100078.31;4947259;28;100912;-86
2022/02/06 01:05:10;;;;;;;9.43;3.30;;;;;;;4.70;57.42;100076.50;4935916;28;97253;-86
2022/02/06 01:07:36;;;;;;;9.77;3.40;;;;;;;4.65;57.29;100059.25;4953166;28;97108;-86
2022/02/06 01:10:02;;;;;;;6.77;3.30;;;;;;;4.64;57.27;100071.41;4931043;28;101043;-87
2022/02/06 01:12:31;;;;;;;7.30;2.80;;;;;;;4.57;57.51;100048.09;4933310;28;101081;-86
2022/02/06 01:15:07;;;;;;;6.90;3.00;;;;;;;4.71;57.61;100074.78;4935240;28;96874;-89
2022/02/06 01:17:48;;;;;;;10.17;3.30;;;;;;;4.65;57.38;100073.13;4920305;28;97225;-86
2022/02/06 01:22:48;;;;;;;5.93;2.73;;;;;;;4.41;57.75;100011.94;4933887;28;98249;-86
2022/02/06 01:25:19;;;;;;;7.97;3.00;;;;;;;4.69;57.52;100041.00;4936139;28;96684;-87
2022/02/06 01:27:56;;;;;;;7.15;2.92;;;;;;;4.74;57.37;100051.31;4937599;28;96835;-86
2022/02/06 01:30:32;;;;;;;9.13;3.13;;;;;;;4.71;57.48;100028.84;4921265;28;101794;-87
2022/02/06 01:33:09;;;;;;;7.90;3.33;;;;;;;4.70;57.21;100032.31;4936775;28;101311;-88
2022/02/06 01:35:45;;;;;;;6.57;2.83;;;;;;;4.68;57.23;100033.22;4920601;28;97176;-87
2022/02/06 01:38:26;;;;;;;6.90;2.93;;;;;;;4.57;57.74;100023.00;4936130;28;98053;-87
2022/02/06 01:40:59;;;;;;;6.85;2.53;;;;;;;4.48;57.15;99994.50;4936503;28;98509;-88
2022/02/06 01:43:32;;;;;;;6.30;2.63;;;;;;;4.56;57.40;100010.84;4951831;28;96906;-88
2022/02/06 02:31:41;;;;;;;6.50;2.73;;;;;;;4.66;57.33;99957.84;4956347;28;96870;-86
2022/02/06 02:47:20;;;;;;;7.00;2.60;;;;;;;4.80;56.73;99934.22;4935813;28;101357;-87
2022/02/06 02:50:12;;;;;;;7.37;2.47;;;;;;;4.80;56.49;99929.03;4918453;28;96746;-87
2022/02/06 02:53:02;;;;;;;8.33;2.60;;;;;;;4.64;56.77;99902.41;4935190;28;97139;-87
2022/02/06 03:03:13;;;;;;;4.73;2.07;;;;;;;4.83;56.58;99899.47;4932846;28;97095;-88
2022/02/06 03:05:40;;;;;;;4.80;2.33;;;;;;;4.82;56.94;99892.56;4935233;28;102044;-87
2022/02/06 03:08:07;;;;;;;6.03;2.60;;;;;;;4.82;56.80;99879.56;4934524;28;100139;-86
2022/02/06 03:10:33;;;;;;;4.60;2.37;;;;;;;4.71;56.71;99870.22;4919342;28;96776;-86
2022/02/06 03:13:02;;;;;;;6.93;2.30;;;;;;;4.75;56.69;99876.22;4935806;28;96976;-88
2022/02/06 03:15:42;;;;;;;3.67;2.13;;;;;;;4.87;56.80;99882.97;4935923;28;98654;-86
2022/02/06 03:18:15;;;;;;;6.23;2.40;;;;;;;4.89;56.59;99870.78;4935181;28;101430;-86
2022/02/06 03:20:40;;;;;;;5.67;2.43;;;;;;;4.78;57.02;99857.13;4916002;28;96673;-86
2022/02/06 03:23:07;;;;;;;5.27;2.90;;;;;;;4.92;56.99;99866.38;4915090;28;97610;-87
2022/02/06 03:25:35;;;;;;;6.90;2.80;;;;;;;4.81;56.88;99854.47;4915868;28;97612;-87
2022/02/06 03:28:02;;;;;;;8.60;2.43;;;;;;;4.93;56.65;99857.69;4914877;28;101446;-88
2022/02/06 03:30:29;;;;;;;6.00;1.93;;;;;;;4.89;56.80;99855.19;4916916;28;96799;-86
2022/02/06 03:32:56;;;;;;;5.67;2.00;;;;;;;4.87;57.30;99847.41;4916448;28;97001;-86
2022/02/06 03:35:23;;;;;;;5.57;2.33;;;;;;;4.91;57.22;99843.00;4917066;28;101119;-86
2022/02/06 03:37:48;;;;;;;5.30;1.83;;;;;;;4.78;57.06;99828.50;4899250;28;99504;-87
2022/02/06 03:40:26;;;;;;;10.47;2.63;;;;;;;4.90;57.37;99846.50;4915147;28;96683;-87
2022/02/06 03:43:50;;;;;;;6.93;2.37;;;;;;;4.88;57.39;99838.69;4899020;28;97093;-87
2022/02/06 03:45:50;;;;;;;5.73;2.60;;;;;;;4.98;57.54;99826.41;4910766;28;100023;-86
2022/02/06 03:48:23;;;;;;;4.83;2.23;;;;;;;4.98;57.52;99836.81;4916088;28;101409;-86
2022/02/06 03:50:54;;;;;;;5.37;2.23;;;;;;;4.99;57.43;99839.34;4919875;28;96912;-87
2022/02/06 03:53:23;;;;;;;5.75;2.33;;;;;;;4.78;57.89;99799.91;4917451;28;97548;-87
2022/02/06 03:55:50;;;;;;;6.87;2.13;;;;;;;4.79;57.62;99799.88;4918427;28;102040;-87
2022/02/06 03:58:17;;;;;;;5.20;1.90;;;;;;;4.90;57.53;99810.06;4901638;28;101304;-87
2022/02/06 04:00:42;;;;;;;5.73;2.00;;;;;;;4.97;57.58;99809.94;4919188;28;97158;-86
2022/02/06 04:03:08;;;;;;;5.93;1.77;;;;;;;4.96;57.78;99805.59;4919421;28;96801;-86
2022/02/06 04:05:34;;;;;;;7.87;2.20;;;;;;;4.95;57.87;99801.31;4903020;28;100976;-88
2022/02/06 04:08:00;;;;;;;5.10;1.53;;;;;;;5.06;57.42;99800.22;4920414;28;101144;-87
2022/02/06 04:10:33;;;;;;;8.00;2.23;;;;;;;4.97;57.85;99791.72;4937133;28;96830;-86
2022/02/06 04:13:01;;;;;;;4.80;2.40;;;;;;;4.86;57.79;99772.88;4921739;28;97436;-86
2022/02/06 04:15:37;;;;;;;5.23;1.80;;;;;;;4.90;57.73;99758.06;4938145;28;101394;-87
2022/02/06 04:18:14;;;;;;;4.00;1.83;;;;;;;5.07;57.58;99784.59;4938085;28;101251;-88
2022/02/06 04:20:40;;;;;;;4.60;1.80;;;;;;;4.97;57.67;99747.50;4940280;28;97160;-88
2022/02/06 04:23:06;;;;;;;5.77;1.80;;;;;;;5.15;57.22;99766.22;4922055;28;97196;-87
2022/02/06 04:25:32;;;;;;;4.37;1.50;;;;;;;5.01;57.93;99750.03;4939655;28;100374;-87
2022/02/06 04:27:58;;;;;;;2.77;1.50;;;;;;;5.03;57.53;99733.50;4918027;28;102139;-87
2022/02/06 04:30:23;;;;;;;2.53;1.40;;;;;;;5.11;57.94;99744.59;4919486;28;96662;-86
2022/02/06 04:32:49;;;;;;;3.70;1.50;;;;;;;4.80;57.79;99697.56;4919140;28;97122;-86
2022/02/06 04:35:18;;;;;;;4.27;1.43;;;;;;;5.07;57.86;99719.53;4901948;28;99927;-87
2022/02/06 04:38:06;;;;;;;6.83;1.47;;;;;;;5.04;57.89;99716.16;4933822;28;97923;-87
2022/02/06 05:21:25;;;;;;;4.30;1.00;;;;;;;5.21;57.99;99649.00;4957171;28;101010;-87
2022/02/06 05:29:23;;;;;;;3.67;1.40;;;;;;;4.98;58.66;99603.53;4972189;28;98580;-87
2022/02/06 05:33:59;;;;;;;3.97;1.73;;;;;;;5.11;58.60;99624.06;4957160;28;96731;-86
2022/02/06 05:36:25;;;;;;;2.57;1.43;;;;;;;5.20;58.46;99637.72;4956003;28;97103;-88
2022/02/06 05:38:50;;;;;;;2.37;1.40;;;;;;;5.21;58.25;99630.78;4939445;28;100694;-86
2022/02/06 05:41:16;;;;;;;2.43;1.30;;;;;;;5.20;58.32;99613.44;4939005;28;100834;-86
2022/02/06 05:43:41;;;;;;;2.63;1.10;;;;;;;5.14;58.51;99614.44;4956151;28;96745;-87
2022/02/06 05:46:07;;;;;;;2.97;1.30;;;;;;;5.15;58.68;99602.31;4957327;28;97178;-87
2022/02/06 05:48:33;;;;;;;1.90;1.10;;;;;;;5.18;58.58;99615.25;4970851;28;101328;-87
2022/02/06 05:50:59;;;;;;;1.33;0.90;;;;;;;5.25;58.75;99609.00;4923879;28;100940;-87
2022/02/06 05:53:25;;;;;;;3.43;1.17;;;;;;;5.10;58.29;99576.38;4922461;28;96782;-85
2022/02/06 05:55:50;;;;;;;1.33;0.97;;;;;;;5.34;58.35;99611.38;4955831;28;97357;-87
2022/02/06 05:58:16;;;;;;;3.77;1.20;;;;;;;5.26;58.36;99600.28;4938968;28;97161;-86
2022/02/06 06:00:42;;;;;;;1.90;1.00;;;;;;;5.28;58.69;99606.31;4956735;28;97777;-87
2022/02/06 06:03:08;;;;;;;2.57;1.27;;;;;;;5.03;58.78;99561.78;4970257;28;96747;-87
2022/02/06 06:05:34;;;;;;;3.27;1.20;;;;;;;5.13;58.56;99572.88;4921194;28;97834;-85
2022/02/06 06:08:00;;;;;;;2.03;1.10;;;;;;;5.30;58.49;99593.28;4935931;28;99853;-87
2022/02/06 06:10:25;;;;;;;2.20;0.67;;;;;;;5.40;58.25;99590.41;4936179;28;101063;-87
2022/02/06 06:12:51;;;;;;;3.10;1.07;;;;;;;5.33;58.63;99588.84;4935154;28;96733;-87
2022/02/06 06:15:16;;;;;;;1.93;1.20;;;;;;;5.31;58.43;99584.56;4936773;28;96699;-86
2022/02/06 06:17:42;;;;;;;2.00;1.17;;;;;;;5.29;58.38;99576.78;4935924;28;98077;-86
2022/02/06 06:20:13;;;;;;;2.17;0.90;;;;;;;5.39;58.50;99582.66;4935620;28;101283;-85
2022/02/06 06:22:39;;;;;;;3.77;1.40;;;;;;;5.36;58.87;99583.56;4920495;28;97089;-87
2022/02/06 06:25:07;;;;;;;2.30;1.10;;;;;;;5.37;58.91;99582.66;4936709;28;97565;-87
2022/02/06 06:27:32;;;;;;;3.40;1.27;;;;;;;5.16;58.85;99552.81;4935366;28;101787;-88
2022/02/06 06:29:58;;;;;;;2.30;1.00;;;;;;;5.34;58.76;99567.13;4919837;28;101643;-86
2022/02/06 06:32:23;;;;;;;4.20;1.57;;;;;;;5.32;59.10;99562.84;4934408;28;96760;-86
2022/02/06 06:34:50;;;;;;;3.23;1.50;;;;;;;5.35;59.44;99571.47;4917373;28;96730;-87
2022/02/06 06:37:18;;;;;;;6.20;1.40;;;;;;;5.45;59.17;99562.50;4938873;28;101441;-87
2022/02/06 06:39:44;;;;;;;2.10;1.13;;;;;;;5.42;59.29;99567.81;4956145;28;98401;-86
2022/02/06 06:42:10;;;;;;;1.93;1.30;;;;;;;5.38;59.89;99566.19;4955828;28;96653;-87
2022/02/06 06:44:37;;;;;;;1.50;1.10;;;;;;;5.44;60.27;99567.78;4957042;28;96830;-86
2022/02/06 06:47:04;;;;;;;2.13;1.23;;;;;;;5.39;60.38;99557.47;4945906;28;100545;-86
2022/02/06 06:49:29;;;;;;;1.87;1.20;;;;;;;5.53;60.85;99569.28;4953617;28;100294;-85
2022/02/06 06:51:55;;;;;;;2.83;1.30;;;;;;;5.51;61.38;99565.88;4957998;28;96728;-87
2022/02/06 06:54:23;;;;;;;2.83;1.20;;;;;;;5.44;62.46;99557.38;4955007;28;98502;-87
2022/02/06 06:57:03;;;;;;;2.27;1.10;;;;;;;5.36;62.55;99551.50;4955784;28;100933;-87
2022/02/06 07:04:42;;;;;;;2.67;1.60;;;;;;;5.40;62.63;99543.53;4945688;28;97331;-87
2022/02/06 07:07:08;;;;;;;3.50;1.83;;;;;;;5.42;62.66;99544.38;4909314;28;101472;-87
2022/02/06 07:09:33;;;;;;;6.10;2.57;;;;;;;5.48;62.19;99547.72;4911981;28;101280;-87
2022/02/06 07:11:59;;;;;;;6.27;2.80;;;;;;;5.46;62.22;99537.34;4933073;28;96635;-86
2022/02/06 07:14:27;;;;;;;3.67;1.90;;;;;;;5.44;62.30;99528.72;4932109;28;96819;-87
2022/02/06 07:16:53;;;;;;;3.63;1.77;;;;;;;5.36;62.24;99518.50;4932997;28;98076;-87
2022/02/06 07:19:19;;;;;;;2.90;1.60;;;;;;;5.40;61.98;99514.06;4931767;28;97569;-87
2022/02/06 07:21:44;;;;;;;3.77;1.40;;;;;;;5.35;62.35;99495.09;4932796;28;96722;-87
2022/02/06 07:24:10;;;;;;;2.77;1.30;;;;;;;5.62;62.18;99537.81;4935804;28;96860;-87
2022/02/06 07:26:35;;;;;;;5.80;1.63;;;;;;;5.59;61.94;99530.94;4921735;28;101558;-87
2022/02/06 07:29:02;;;;;;;3.00;1.50;;;;;;;5.63;61.87;99521.28;4956161;28;98285;-87
2022/02/06 07:31:28;;;;;;;2.60;1.60;;;;;;;5.45;61.58;99499.19;4923267;28;96630;-86
2022/02/06 07:33:54;;;;;;;2.57;1.40;;;;;;;5.60;61.55;99521.38;4939508;28;96988;-86
2022/02/06 07:36:20;;;;;;;3.10;1.20;;;;;;;5.53;61.97;99510.25;4938652;28;101247;-86
2022/02/06 07:38:47;;;;;;;4.17;1.70;;;;;;;5.45;61.68;99487.03;4922217;28;98108;-87
2022/02/06 07:41:13;;;;;;;2.30;1.30;;;;;;;5.62;61.41;99498.75;4938215;28;97131;-87
2022/02/06 07:43:38;;;;;;;3.37;1.60;;;;;;;5.58;61.70;99490.16;4922489;28;96820;-87
2022/02/06 07:46:09;;;;;;;5.43;2.07;;;;;;;5.53;61.37;99479.03;4939237;28;102127;-87
2022/02/06 07:48:35;;;;;;;5.07;2.17;;;;;;;5.65;61.71;99485.66;4959482;28;97144;-87
2022/02/06 07:51:03;;;;;;;3.60;1.60;;;;;;;5.46;61.42;99441.03;4926089;28;97064;-87
2022/02/06 07:53:29;;;;;;;3.47;2.03;;;;;;;5.64;61.19;99476.09;4942143;28;98068;-87
2022/02/06 07:55:55;;;;;;;4.27;1.93;;;;;;;5.73;61.09;99470.69;4957689;28;101243;-87
2022/02/06 07:58:21;;;;;;;3.00;1.83;;;;;;;5.76;61.75;99462.78;4957068;28;100885;-87
2022/02/06 08:00:46;;;;;;;3.67;1.70;;;;;;;5.78;61.15;99455.75;4974850;28;96586;-86
2022/02/06 08:03:12;;;;;;;8.20;3.00;;;;;;;5.56;61.42;99418.22;4962173;28;96830;-85
2022/02/06 08:05:37;;;;;;;5.17;2.30;;;;;;;5.82;60.91;99453.94;4922843;28;98455;-87
2022/02/06 08:08:11;;;;;;;2.80;1.23;;;;;;;5.74;60.54;99435.91;4938051;28;101694;-88
2022/02/06 08:10:36;;;;;;;4.17;2.33;;;;;;;5.78;60.73;99442.72;4940211;28;96632;-87
2022/02/06 08:13:08;;;;;;;7.50;2.37;;;;;;;5.95;60.71;99446.66;4921796;28;98012;-88
2022/02/06 08:15:34;;;;;;;10.60;4.68;;;;;;;5.87;60.67;99444.22;4912888;28;102657;-87
2022/02/06 08:17:59;;;;;;;11.07;4.23;;;;;;;5.89;60.78;99437.22;4931751;28;97940;-92
2022/02/06 08:20:25;;;;;;;6.13;1.97;;;;;;;5.86;60.45;99437.31;4916036;28;97861;-89
2022/02/06 08:22:52;;;;;;;5.40;2.53;;;;;;;5.99;60.20;99438.72;4918039;28;96712;-89
2022/02/06 08:25:18;;;;;;;4.17;2.03;;;;;;;5.89;60.66;99432.84;4936873;28;101027;-89
2022/02/06 08:27:44;;;;;;;4.80;2.13;;;;;;;5.82;60.86;99425.28;4909848;28;98315;-89
2022/02/06 08:30:11;;;;;;;5.90;2.60;;;;;;;5.97;60.91;99439.66;4932646;28;97337;-88
2022/02/06 08:32:36;;;;;;;5.87;3.63;;;;;;;5.87;60.58;99400.78;4928466;28;97145;-89
2022/02/06 08:35:03;;;;;;;5.17;2.30;;;;;;;5.99;60.77;99419.59;4935569;28;100378;-90
2022/02/06 08:37:28;;;;;;;5.50;2.43;;;;;;;5.95;60.73;99410.19;4931178;28;98128;-90
2022/02/06 08:39:54;;;;;;;4.23;1.60;;;;;;;5.95;61.01;99402.34;4916717;28;97113;-89
2022/02/06 08:42:20;;;;;;;4.97;2.77;;;;;;;5.89;60.58;99372.94;4945824;28;96790;-88
2022/02/06 08:44:47;;;;;;;4.10;2.10;;;;;;;6.03;59.92;99398.63;4923026;28;101749;-89
2022/02/06 08:47:16;;;;;;;3.10;1.70;;;;;;;6.05;60.29;99409.88;4924730;28;101281;-89
2022/02/06 08:49:42;;;;;;;2.40;1.57;;;;;;;6.04;60.50;99400.31;4927185;28;96750;-90
2022/02/06 08:52:09;;;;;;;2.87;1.90;;;;;;;6.04;60.09;99402.94;4906949;28;97168;-90
2022/02/06 08:54:37;;;;;;;2.40;1.40;;;;;;;6.18;59.94;99412.09;4918621;28;100771;-94
2022/02/06 08:57:11;;;;;;;2.80;1.90;;;;;;;6.18;59.95;99407.72;4903894;28;100584;-95
2022/02/06 08:59:37;;;;;;;7.70;3.40;;;;;;;6.03;59.33;99375.19;4923419;28;97212;-87
2022/02/06 09:02:03;;;;;;;3.83;1.87;;;;;;;6.02;59.17;99351.75;4920285;28;97354;-89
2022/02/06 09:04:29;;;;;;;3.83;1.80;;;;;;;6.22;59.66;99398.06;4932351;28;100832;-87
2022/02/06 09:06:59;;;;;;;2.87;1.93;;;;;;;6.21;59.60;99389.38;4933139;28;101785;-90
2022/02/06 09:09:25;;;;;;;4.80;2.00;;;;;;;6.25;59.62;99390.13;4933060;28;96704;-87
2022/02/06 09:11:52;;;;;;;3.87;2.10;;;;;;;6.08;59.89;99349.00;4915267;28;97676;-88
2022/02/06 09:14:23;;;;;;;3.10;1.80;;;;;;;6.27;59.75;99373.56;4915287;28;98206;-87
2022/02/06 09:16:50;;;;;;;2.55;1.23;;;;;;;6.23;59.93;99382.38;4922811;28;98135;-87
2022/02/06 09:19:16;;;;;;;4.17;2.60;;;;;;;6.37;59.98;99375.88;4928533;28;96881;-88
2022/02/06 09:21:42;;;;;;;4.70;2.30;;;;;;;6.31;59.95;99374.31;4934212;28;96821;-86
2022/02/06 09:24:08;;;;;;;2.50;1.67;;;;;;;6.33;59.74;99375.97;4933220;28;101243;-87
2022/02/06 09:26:36;;;;;;;3.07;1.60;;;;;;;6.26;59.68;99340.59;4931265;28;97899;-91
2022/02/06 09:29:02;;;;;;;6.10;2.30;;;;;;;6.37;60.19;99358.50;4905951;28;97640;-91
2022/02/06 09:31:27;;;;;;;3.90;1.80;;;;;;;6.38;59.43;99357.59;4934443;28;96953;-90
2022/02/06 09:36:19;;;;;;;7.90;2.87;;;;;;;6.47;59.81;99359.03;4932591;28;101281;-91
2022/02/06 09:38:45;;;;;;;6.03;3.30;;;;;;;6.38;59.64;99346.31;4935123;28;96775;-91
2022/02/06 09:41:10;;;;;;;3.87;1.90;;;;;;;6.39;59.92;99353.22;4935433;28;96802;-86
2022/02/06 09:43:37;;;;;;;4.10;2.20;;;;;;;6.40;59.45;99347.09;4908344;28;100737;-85
2022/02/06 09:46:03;;;;;;;6.03;2.73;;;;;;;6.16;59.99;99307.03;4922132;28;97940;-89
2022/02/06 09:48:32;;;;;;;7.63;3.30;;;;;;;6.50;59.76;99348.50;4929351;28;96832;-87
2022/02/06 09:50:59;;;;;;;3.83;1.80;;;;;;;6.51;59.25;99347.59;4948401;28;97256;-88
2022/02/06 09:53:29;;;;;;;5.27;2.10;;;;;;;6.36;59.47;99317.66;4930904;28;98455;-87
2022/02/06 09:55:56;;;;;;;7.93;2.30;;;;;;;6.37;58.55;99308.09;4930721;28;98100;-87
2022/02/06 10:00:50;;;;;;;4.73;2.20;;;;;;;6.51;59.25;99327.59;4908220;28;96834;-88
2022/02/06 10:03:18;;;;;;;6.70;3.20;;;;;;;6.53;59.32;99325.78;4905699;28;98583;-88
2022/02/06 10:05:44;;;;;;;9.17;3.90;;;;;;;6.58;58.97;99305.63;4913306;28;100252;-87
2022/02/06 10:08:20;;;;;;;7.87;2.73;;;;;;;6.56;58.93;99311.81;4951650;28;97442;-87
2022/02/06 10:11:13;;;;;;;7.43;2.83;;;;;;;6.39;58.98;99281.06;4919378;28;97073;-86
2022/02/06 10:13:39;;;;;;;5.70;2.27;;;;;;;6.60;58.90;99297.75;4915085;28;98133;-86
2022/02/06 10:16:15;;;;;;;4.30;1.60;;;;;;;6.67;58.75;99291.44;4919232;28;96804;-86
2022/02/06 10:18:42;;;;;;;4.83;2.03;;;;;;;6.58;58.99;99278.72;4918802;28;96743;-87
2022/02/06 10:21:13;;;;;;;3.67;1.90;;;;;;;6.51;59.42;99270.22;4918535;28;97516;-81
2022/02/06 10:23:58;;;;;;;9.30;3.57;;;;;;;6.54;59.24;99258.84;4931686;28;98025;-85
2022/02/06 10:26:52;;;;;;;6.17;3.27;;;;;;;6.50;58.72;99249.44;4951927;28;97983;-85
2022/02/06 10:31:55;;;;;;;4.53;2.23;;;;;;;6.76;58.49;99270.25;4940778;28;98112;-86
2022/02/06 10:34:23;;;;;;;3.90;1.83;;;;;;;6.80;58.27;99270.97;4931092;28;99979;-85
2022/02/06 10:36:50;;;;;;;3.00;1.80;;;;;;;6.65;58.02;99240.22;4938704;28;97950;-85
2022/02/06 10:39:18;;;;;;;3.93;2.20;;;;;;;6.77;58.37;99266.72;4948238;28;96788;-86
2022/02/06 10:41:45;;;;;;;4.03;2.33;;;;;;;6.82;58.46;99258.75;4936983;28;97471;-83
2022/02/06 10:44:10;;;;;;;5.27;2.30;;;;;;;6.79;58.35;99248.41;4930635;28;97549;-83
2022/02/06 10:46:54;;;;;;;5.83;2.43;;;;;;;6.87;58.50;99248.16;4917119;28;97383;-83
2022/02/06 10:49:20;;;;;;;5.30;2.20;;;;;;;6.86;58.72;99251.66;4914216;28;96849;-83
2022/02/06 10:51:59;;;;;;;4.83;2.00;;;;;;;6.89;58.66;99241.09;4927275;28;96960;-83
2022/02/06 10:54:28;;;;;;;5.20;2.20;;;;;;;6.93;58.32;99229.66;4932001;28;101200;-84
2022/02/06 10:57:18;;;;;;;4.43;1.87;;;;;;;6.86;58.42;99229.03;4949961;28;97884;-83
2022/02/06 10:59:45;;;;;;;7.30;2.67;;;;;;;6.92;58.20;99221.00;4915706;28;96828;-83
2022/02/06 11:02:27;;;;;;;5.97;1.97;;;;;;;6.88;57.90;99222.00;4924395;28;97562;-84
2022/02/06 11:04:58;;;;;;;3.17;1.90;;;;;;;6.85;58.57;99200.41;4920206;28;101310;-83
2022/02/06 11:07:23;;;;;;;5.63;2.27;;;;;;;6.95;58.18;99209.56;4927152;28;101816;-83
2022/02/06 11:09:49;;;;;;;4.53;2.20;;;;;;;6.89;58.21;99215.00;4907896;28;97286;-83
2022/02/06 11:12:18;;;;;;;4.47;1.90;;;;;;;6.89;57.76;99183.72;4931137;28;97592;-84
2022/02/06 11:14:47;;;;;;;3.07;1.60;;;;;;;6.85;57.66;99162.09;4937481;28;101314;-83
2022/02/06 11:17:19;;;;;;;3.07;1.53;;;;;;;6.87;57.96;99157.69;4936732;28;98093;-83
2022/02/06 11:20:06;;;;;;;3.03;1.70;;;;;;;7.00;57.98;99173.72;4938199;28;96816;-83
2022/02/06 11:22:32;;;;;;;3.23;1.43;;;;;;;6.96;57.75;99162.56;4937674;28;100288;-83
2022/02/06 11:24:59;;;;;;;5.53;2.23;;;;;;;7.14;57.74;99163.63;4952073;28;99961;-78
2022/02/06 11:27:27;;;;;;;9.40;3.87;;;;;;;7.23;57.66;99152.81;4942543;28;101521;-78
2022/02/06 11:29:54;;;;;;;6.03;2.20;;;;;;;7.34;57.29;99152.41;4933557;28;97837;-77
2022/02/06 11:32:19;;;;;;;5.13;2.37;;;;;;;7.31;56.71;99149.06;4935776;28;97856;-78
2022/02/06 11:34:45;;;;;;;5.07;1.77;;;;;;;7.43;56.81;99141.59;4906252;28;101782;-76
2022/02/06 11:46:22;;;;;;;5.50;3.23;;;;;;;7.45;56.38;99126.72;4951997;28;101401;-79
2022/02/06 11:48:50;;;;;;;3.85;1.92;;;;;;;7.30;57.32;99088.19;4927712;28;97610;-82
2022/02/06 11:51:17;;;;;;;2.60;1.33;;;;;;;7.53;57.09;99100.28;4945845;28;96840;-81
2022/02/06 11:53:43;;;;;;;4.00;1.63;;;;;;;7.47;56.83;99096.16;4928555;28;96908;-82
2022/02/06 11:56:22;;;;;;;3.63;1.83;;;;;;;7.56;56.35;99100.16;4929293;28;101156;-83
2022/02/06 11:58:53;;;;;;;3.53;1.43;;;;;;;7.52;56.33;99092.53;4936243;28;97842;-82
2022/02/06 12:01:18;;;;;;;2.10;1.50;;;;;;;7.58;56.02;99102.72;4936065;28;97512;-82
2022/02/06 12:04:02;;;;;;;4.50;2.07;;;;;;;7.55;57.07;99097.63;4937695;28;96851;-79
2022/02/06 12:06:37;;;;;;;3.63;1.60;;;;;;;7.53;56.18;99110.72;4926272;28;101677;-78
2022/02/06 12:09:02;;;;;;;3.77;1.63;;;;;;;7.50;56.46;99103.03;4915167;28;101393;-79
2022/02/06 12:11:29;;;;;;;3.30;1.60;;;;;;;7.50;56.73;99089.97;4929080;28;96791;-79
2022/02/06 12:14:23;;;;;;;8.35;1.92;;;;;;;7.51;56.65;99096.06;4918960;28;98179;-79
2022/02/06 12:17:15;;;;;;;9.90;2.07;;;;;;;7.89;58.62;99097.91;4916231;28;102435;-76
2022/02/06 12:19:41;;;;;;;6.05;3.33;;;;;;;7.77;56.86;99095.84;4943406;28;97697;-80
2022/02/06 12:22:28;;;;;;;4.33;1.40;;;;;;;7.74;56.46;99072.44;4931433;28;96837;-81
2022/02/06 12:25:17;;;;;;;4.77;1.97;;;;;;;7.66;56.13;99080.59;4930543;28;96933;-83
2022/02/06 12:27:42;;;;;;;2.67;1.37;;;;;;;7.62;56.44;99065.09;4916193;28;101346;-83
2022/02/06 12:30:13;;;;;;;3.53;1.80;;;;;;;7.68;56.14;99073.56;4932297;28;101792;-83
2022/02/06 12:32:40;;;;;;;4.00;1.57;;;;;;;7.65;55.75;99064.97;4903343;28;98754;-83
2022/02/06 12:37:53;;;;;;;5.23;2.00;;;;;;;7.69;56.18;99054.34;4936313;28;100207;-82
2022/02/06 12:40:23;;;;;;;2.47;1.63;;;;;;;7.74;56.35;99035.00;4932244;28;101340;-82
2022/02/06 12:42:53;;;;;;;4.60;1.95;;;;;;;7.77;55.43;99027.91;4925325;28;97168;-83
2022/02/06 12:45:21;;;;;;;2.73;1.20;;;;;;;7.79;56.40;99023.44;4945082;28;97564;-83
2022/02/06 12:47:48;;;;;;;2.50;1.40;;;;;;;7.83;56.04;99032.88;4897775;28;101594;-83
2022/02/06 12:50:23;;;;;;;2.30;1.50;;;;;;;7.77;55.86;99006.16;4926810;28;100303;-82
2022/02/06 12:52:50;;;;;;;6.47;3.67;;;;;;;7.81;55.95;98989.44;4906781;28;97444;-81
2022/02/06 12:55:16;;;;;;;8.93;2.80;;;;;;;7.90;55.25;98999.47;4928377;28;98119;-83
2022/02/06 12:57:42;;;;;;;7.25;3.30;;;;;;;8.04;56.19;98998.88;4920894;28;101725;-84
2022/02/06 13:00:08;;;;;;;3.67;1.95;;;;;;;7.98;55.32;98997.38;4937777;28;101574;-85
2022/02/06 13:02:35;;;;;;;4.30;2.47;;;;;;;7.98;54.96;98989.53;4925658;28;97425;-83
2022/02/06 13:05:06;;;;;;;5.77;2.20;;;;;;;8.11;56.23;98989.81;4923242;28;97465;-83
2022/02/06 13:07:41;;;;;;;7.00;3.30;;;;;;;7.98;55.95;98981.69;4941241;28;101018;-83
2022/02/06 13:10:08;;;;;;;7.07;2.88;;;;;;;7.82;55.84;98941.47;4913296;28;102132;-83
2022/02/06 13:12:56;;;;;;;6.13;2.60;;;;;;;8.04;56.34;98977.97;4911650;28;96799;-91
2022/02/06 13:15:45;;;;;;;5.57;2.05;;;;;;;7.99;54.50;98977.31;4921354;28;97628;-82
2022/02/06 13:18:39;;;;;;;4.35;2.20;;;;;;;8.05;54.22;98988.34;4935170;28;97625;-82
2022/02/06 13:24:02;;;;;;;5.73;2.97;;;;;;;7.94;54.54;98967.06;4932440;28;96762;-80
2022/02/06 13:34:40;;;;;;;3.45;2.15;;;;;;;7.84;55.39;98944.88;4939162;28;97711;-82
2022/02/06 13:37:28;;;;;;;4.80;1.67;;;;;;;7.98;55.57;98941.66;4907812;28;98246;-83
2022/02/06 13:39:57;;;;;;;7.10;2.70;;;;;;;7.98;55.49;98928.59;4928786;28;101577;-84
2022/02/06 13:42:31;;;;;;;7.63;2.77;;;;;;;7.99;55.87;98912.81;4925970;28;102142;-84
2022/02/06 13:45:01;;;;;;;7.53;2.60;;;;;;;7.91;55.76;98907.09;4906524;28;97901;-84
2022/02/06 13:47:27;;;;;;;2.83;1.63;;;;;;;8.01;55.32;98904.94;4929357;28;96887;-84
2022/02/06 13:49:53;;;;;;;5.50;2.58;;;;;;;7.74;55.65;98876.53;4925899;28;101132;-82
2022/02/06 13:52:19;;;;;;;6.57;1.80;;;;;;;7.80;55.96;98867.56;4905005;28;101638;-83
2022/02/06 13:54:49;;;;;;;4.25;2.30;;;;;;;7.99;55.85;98883.25;4925314;28;96852;-82
2022/02/06 13:57:15;;;;;;;5.10;1.83;;;;;;;7.78;55.37;98843.28;4932931;28;96854;-83
2022/02/06 13:59:44;;;;;;;7.10;2.50;;;;;;;7.99;56.09;98888.47;4942696;28;97965;-82
2022/02/06 14:02:11;;;;;;;6.10;2.00;;;;;;;8.02;56.03;98893.53;4936135;28;101139;-85
2022/02/06 14:04:40;;;;;;;3.50;1.83;;;;;;;7.92;56.13;98887.91;4922740;28;98609;-81
2022/02/06 14:07:16;;;;;;;4.80;2.00;;;;;;;7.77;56.46;98847.66;4926601;28;96954;-83
2022/02/06 14:12:09;;;;;;;5.65;2.03;;;;;;;7.93;56.16;98859.06;4915193;28;99610;-81
2022/02/06 14:14:56;;;;;;;5.22;1.95;;;;;;;7.84;56.51;98854.28;4920685;28;97607;-83
2022/02/06 14:17:35;;;;;;;6.60;2.00;;;;;;;7.85;56.40;98855.13;4926768;28;98446;-82
2022/02/06 14:20:09;;;;;;;6.75;2.45;;;;;;;7.78;56.89;98844.13;4903441;28;101290;-82
2022/02/06 14:22:36;;;;;;;3.40;1.80;;;;;;;7.61;56.88;98823.16;4908861;28;101349;-82
2022/02/06 14:25:02;;;;;;;8.17;2.30;;;;;;;7.82;56.49;98836.97;4919456;28;97642;-82
2022/02/06 14:27:42;;;;;;;7.77;3.20;;;;;;;7.63;56.67;98796.03;4941725;28;96964;-85
2022/02/06 14:30:34;;;;;;;7.07;2.53;;;;;;;7.69;56.59;98823.66;4909716;28;102844;-82